Aérodrome :
LOGIN :

S'inscrire | Disclaimer

   EN    FR    IT 

 










Légende :    VFR   VFR Marginal   IFR   IFR Intensif   IFR Très Intensif
Visi : 
Plafond : 
>= 8 km
>= 3000ft
5 à 8 km
1000 à 3000 ft
1500m à 5 km
500 à 1000 ft
800 à 1500m
200 à 500 ft
< 800m
< 200 ft
Symboles :   Orages  Brouillard  Fortes neiges  Fortes précipitations  Vent > 20 kt
SIGMETs :   Divers  Orages  Givrage  Turbulence  Onde Orograph.  Cendres Volcan.







- Altitude de l'aérodrome : 1202 ft
- Code IATA : IGS


ETSI - Ingolstadt

DERNIER METAR :
  • 170720Z 30003KT 9999 FEW015 BKN050 16/12 Q1018 BLU BLU TEMPO WHT

METARs EXPIRÉS :
  • 170620Z 31004KT 9999 BKN060 15/13 Q1018 BLU BLU TEMPO WHT
  • 170520Z 33004KT 9999 BKN060 15/13 Q1018 BLU BLU TEMPO WHT

TAF AMD TAF ETSI
Valide du 17 à 08h jusqu'au 17 à 17h UTC


170741Z 1708/1717 30004KT 9999 NSW SCT020 BKN060 BKN280
TEMPO 1708/1710 30006KT 8000 -DZ FEW012 BKN020 BKN280
BECMG 1712/1714 30008KT 9999 NSW FEW040 SCT060 BKN280
Pas de NOTAMs connus pour ce terrain.



MET'MAP, la Météo Aéronautique d'un coup d'oeil ! - Copyright ORBIFLY Décembre 2007 - Disclaimer

ORBIFLY MET'MAP TEAM :

Programmation & Développement : Alexandra Zaïnal
Conception & Développement : Baudouin d'Aumeries
Co-Programmation & Développement : Marc-Olivier Méhu
Soutien technique & logistique : Manuel Goepfert

Contact : metmap@orbifly.com




SOURCES & CREDITS :

   NOAA